Share

Ashland, ME

Northern Maine Regional At Presque Isle (KPQI) Elev 479 ft | 46.69 °N, 68.04 °W | Change Station

Current weather conditions updated 4 minutes ago

Scattered Clouds
Scattered Clouds
37 °F
Feels Like 37 °F
N
0
Wind Variable Wind from North
Sunrise 5:41 AM
Sunset 7:25 PM
Moon Waning Gibbous

Tomorrow is forecast to be Cooler than today. Showers of rain and snow early.

Pressure 30.18 in
Visibility 10.0 miles
Clouds Scattered Clouds 12000 ft
Dew Point 19 °F
Humidity 48%
Rainfall 0.00 in
Snow Depth Not available.
UV 0 out of 16
Pollen 8.20 out of 12
Ozone Good
PM2.5 Good
Flu Activity Widespread
METAR KPQI 190215Z AUTO 00000KT 10SM SCT120 03/M07 A3018 RMK AO1

More Conditions Fewer Conditions

Pressure 30.18 in
Visibility 10.0 miles
Clouds Scattered Clouds 12000 ft
Dew Point 19 °F
Humidity 48%
Rainfall 0.00 in
Snow Depth Not available.
UV 0 out of 16
Pollen 8.20 out of 12
Ozone Good
PM2.5 Good
Flu Activity Widespread
METAR KPQI 190215Z AUTO 00000KT 10SM SCT120 03/M07 A3018 RMK AO1

More Conditions Fewer Conditions

10-Day Weather Forecast

Almanac

Astronomy

Apr. 18, 2014 Rise Set
Actual Time 5:41 AM EDT 7:25 PM EDT
Civil Twilight 5:09 AM EDT 7:57 PM EDT
Nautical Twilight 4:30 AM EDT 8:37 PM EDT
Astronomical Twilight 3:47 AM EDT 9:19 PM EDT
Moon 11:15 PM EDT (4/18) 7:52 AM EDT (4/18)
Length of Visible Light 14h 48m
Length of Day
13h 44m
Tomorrow will be 3m 8s longer.
Waning Gibbous, 84% of the Moon is Illuminated
Today
Waning Gibbous
Apr 22
Last Quarter
Apr 29
New
May 6
First Quarter
May 14
Full

Today's Extremes

State Highs State Lows

Community

  • Sunset Silhouettes
    Sunset Silhouettes
  • FL sunset Perico Isle
    FL sunset Perico Isle
  • Cloudy spring view
    Cloudy spring view
  • Old barn
    Old barn
  • What's for Lunch?
    What's for Lunch?

WunderPhotos

Upload Photos

1,702,581 photos uploaded!

WunderBlogs® & News

Nearby

Air Quality

  Air Quality AQ Index Pollutant
Yesterday Good
OZONE
Yesterday Good
PM2.5
Current Good
OZONE
Current Good
PM2.5
Friday Good
OZONE
Friday Good
PM2.5
Saturday Good
OZONE
Saturday Good
PM2.5
Sunday Good
OZONE
Sunday Good
PM2.5

Snow Depth

Station Depth Elevation
No new snow has been reported.

Coastal Water Temperatures

Place Temperature
No Stations Reporting

Earthquake Activity

City Distance Mag. Time & Date
No recent earthquake activity has been reported nearby.
Minimum magnitude displayed is 2.5.

Nearby Weather Stations

Station Location Temp. Windchill Dew Point Humidity Wind Precip. Elev Updated Type
Micmac Environmental, Presque Isle, ME 40.8 °F 41 °F 23 °F 49% South  at  0.0 mph 0.00 in / hr 540 ft 10:19 PM EDT Rapid Fire

Show More Stations Show Fewer Stations

What do you think?

We're not finished. Please let us know what you like, what you don't like, and what you are still missing.